Time;durP1;ratioP1;P1;durP2;ratioP2;P2;SDS_P1;SDS_P2;PMS_P1;PMS_P2;Temp;Humidity;BMP_temperature;BMP_pressure;BME280_temperature;BME280_humidity;BME280_pressure;Samples;Min_cycle;Max_cycle;Signal;HPM_P1;HPM_P2
2021/05/25 00:02:26;;;;;;;8.55;7.25;;;;;;;13.17;72.67;98610.25;124738;1097;64283;-84
2021/05/25 00:04:53;;;;;;;9.43;7.10;;;;;;;13.10;73.09;98609.06;124611;1097;64393;-86
2021/05/25 00:07:21;;;;;;;10.80;8.20;;;;;;;13.05;73.22;98612.11;124522;1104;64358;-83
2021/05/25 00:09:48;;;;;;;10.40;7.47;;;;;;;13.05;73.50;98609.44;124574;1104;64396;-83
2021/05/25 00:12:15;;;;;;;11.23;8.00;;;;;;;13.08;73.93;98609.17;124653;1104;64798;-85
2021/05/25 00:14:42;;;;;;;13.80;10.40;;;;;;;13.03;74.37;98611.38;124639;1097;64330;-85
2021/05/25 00:17:09;;;;;;;10.53;9.23;;;;;;;12.96;74.33;98607.55;124568;1104;64689;-85
2021/05/25 00:19:37;;;;;;;13.80;9.70;;;;;;;12.91;74.50;98613.27;124635;1096;64386;-85
2021/05/25 00:22:04;;;;;;;11.93;8.63;;;;;;;12.91;74.52;98609.75;124636;1097;64337;-85
2021/05/25 00:24:33;;;;;;;9.40;8.00;;;;;;;12.90;74.68;98610.70;124556;1105;64252;-85
2021/05/25 00:27:00;;;;;;;9.63;8.57;;;;;;;12.90;74.89;98608.91;124598;1097;64329;-85
2021/05/25 00:29:28;;;;;;;12.97;8.23;;;;;;;12.94;74.88;98593.44;124541;1104;64358;-85
2021/05/25 00:31:55;;;;;;;9.10;7.80;;;;;;;13.03;75.21;98589.14;124545;1104;64898;-85
2021/05/25 00:34:22;;;;;;;12.90;9.37;;;;;;;13.08;74.89;98574.40;124593;1104;64476;-85
2021/05/25 00:36:49;;;;;;;13.55;9.35;;;;;;;13.10;74.77;98579.63;124574;1104;64310;-85
2021/05/25 00:39:16;;;;;;;11.13;9.07;;;;;;;13.10;74.67;98572.45;124659;1104;64398;-85
2021/05/25 00:41:44;;;;;;;11.85;8.95;;;;;;;13.09;74.91;98565.41;124602;1104;64288;-85
2021/05/25 00:44:11;;;;;;;12.90;8.60;;;;;;;13.09;74.64;98560.06;124597;1104;64333;-85
2021/05/25 00:46:39;;;;;;;10.30;8.27;;;;;;;13.09;74.67;98553.87;124668;1097;64339;-85
2021/05/25 00:49:06;;;;;;;10.90;7.97;;;;;;;13.10;74.61;98551.05;124585;1097;64339;-85
2021/05/25 00:51:34;;;;;;;11.10;8.00;;;;;;;13.08;74.65;98561.02;124590;1104;64368;-85
2021/05/25 00:54:02;;;;;;;13.90;8.00;;;;;;;13.10;74.78;98566.25;124645;1104;64345;-85
2021/05/25 00:56:31;;;;;;;11.37;9.03;;;;;;;13.10;74.85;98553.72;124549;1104;64335;-85
2021/05/25 00:58:58;;;;;;;10.55;8.75;;;;;;;13.11;74.76;98554.56;124672;1097;64284;-85
2021/05/25 01:01:25;;;;;;;10.00;8.97;;;;;;;13.13;74.88;98550.78;124591;1104;64334;-85
2021/05/25 01:03:54;;;;;;;13.57;9.23;;;;;;;13.14;74.76;98551.66;124599;1104;64335;-86
2021/05/25 01:06:22;;;;;;;9.60;8.40;;;;;;;13.18;74.77;98550.40;124627;1097;64335;-85
2021/05/25 01:08:50;;;;;;;10.37;8.90;;;;;;;13.17;74.69;98548.72;124580;1104;64494;-85
2021/05/25 01:11:19;;;;;;;10.33;8.77;;;;;;;13.17;74.79;98533.50;124627;1104;64415;-85
2021/05/25 01:13:52;;;;;;;11.77;8.70;;;;;;;13.16;74.77;98529.14;124746;1104;64334;-85
2021/05/25 01:16:26;;;;;;;11.57;8.27;;;;;;;13.18;75.08;98537.86;124659;1097;64268;-84
2021/05/25 01:18:55;;;;;;;12.30;8.73;;;;;;;13.16;75.05;98539.84;124592;1097;64342;-84
2021/05/25 01:21:25;;;;;;;10.03;8.73;;;;;;;13.17;74.92;98536.18;124590;1104;64396;-84
2021/05/25 01:23:52;;;;;;;11.35;8.95;;;;;;;13.22;75.06;98534.92;124692;1104;64332;-85
2021/05/25 01:26:20;;;;;;;11.17;8.70;;;;;;;13.26;75.23;98536.38;124681;1104;64358;-85
2021/05/25 01:28:49;;;;;;;11.40;9.23;;;;;;;13.26;75.41;98528.34;124689;1097;64332;-85
2021/05/25 01:31:17;;;;;;;11.97;9.70;;;;;;;13.24;75.17;98528.46;124635;1104;64253;-85
2021/05/25 01:33:44;;;;;;;12.80;9.30;;;;;;;13.27;75.32;98522.03;124590;1104;64304;-85
2021/05/25 01:36:14;;;;;;;13.83;8.90;;;;;;;13.29;75.20;98528.11;124604;1104;64645;-85
2021/05/25 01:38:42;;;;;;;12.27;9.40;;;;;;;13.27;75.27;98536.28;124663;1097;64249;-84
2021/05/25 01:41:10;;;;;;;11.40;9.53;;;;;;;13.30;75.24;98536.02;124605;1104;64425;-84
2021/05/25 01:43:39;;;;;;;13.60;10.40;;;;;;;13.35;75.36;98535.63;124496;1097;64336;-85
2021/05/25 01:46:06;;;;;;;12.27;9.83;;;;;;;13.37;75.35;98522.94;124704;1097;64371;-85
2021/05/25 01:48:34;;;;;;;12.17;10.20;;;;;;;13.37;75.16;98531.81;124700;1104;64365;-85
2021/05/25 01:51:01;;;;;;;14.37;10.30;;;;;;;13.39;75.25;98537.05;124629;1104;64281;-84
2021/05/25 01:53:30;;;;;;;15.10;13.50;;;;;;;13.37;75.73;98539.84;124712;1096;64393;-85
2021/05/25 01:55:59;;;;;;;13.97;12.50;;;;;;;13.36;75.50;98531.97;124662;1104;64368;-85
2021/05/25 01:58:34;;;;;;;11.75;10.45;;;;;;;13.36;75.53;98523.94;124580;1104;64397;-84
2021/05/25 02:01:05;;;;;;;12.70;9.80;;;;;;;13.35;75.61;98525.77;124697;1104;64413;-85
2021/05/25 02:03:33;;;;;;;14.13;8.50;;;;;;;13.33;75.52;98532.23;124694;1104;64333;-85
2021/05/25 02:06:01;;;;;;;9.97;8.97;;;;;;;13.29;75.35;98547.69;124584;1104;64783;-85
2021/05/25 02:08:29;;;;;;;11.47;10.17;;;;;;;13.27;75.61;98551.47;124565;1104;64394;-86
2021/05/25 02:11:00;;;;;;;13.67;12.37;;;;;;;13.26;75.35;98544.40;124706;1097;64384;-85
2021/05/25 02:13:32;;;;;;;20.20;18.10;;;;;;;13.24;75.69;98539.16;124652;1104;64410;-86
2021/05/25 02:16:03;;;;;;;176.77;111.80;;;;;;;13.24;76.10;98536.48;124609;1104;64339;-86
2021/05/25 02:18:37;;;;;;;84.70;51.13;;;;;;;13.21;76.04;98543.94;124624;1097;64285;-85
2021/05/25 02:21:07;;;;;;;52.57;30.80;;;;;;;13.20;76.10;98550.28;124725;1104;64275;-86
2021/05/25 02:23:35;;;;;;;14.60;10.70;;;;;;;13.21;76.08;98563.52;124605;1104;64409;-86
2021/05/25 02:26:03;;;;;;;10.87;9.37;;;;;;;13.17;76.04;98578.98;124545;1104;64405;-84
2021/05/25 02:28:31;;;;;;;11.90;8.73;;;;;;;13.12;76.19;98594.58;124686;1104;64271;-84
2021/05/25 02:30:59;;;;;;;10.73;9.20;;;;;;;13.08;76.41;98593.13;124731;1104;64336;-85
2021/05/25 02:33:27;;;;;;;12.35;10.20;;;;;;;13.06;76.24;98596.91;124659;1097;64341;-85
2021/05/25 02:35:57;;;;;;;12.00;9.40;;;;;;;13.08;76.65;98600.31;124671;1105;64470;-84
2021/05/25 02:38:26;;;;;;;9.43;8.40;;;;;;;13.10;76.67;98595.69;124678;1097;64336;-85
2021/05/25 02:40:54;;;;;;;10.90;9.73;;;;;;;13.06;76.71;98584.41;124654;1104;64361;-85
2021/05/25 02:43:24;;;;;;;13.20;9.73;;;;;;;13.07;76.91;98588.77;124631;1104;64315;-84
2021/05/25 02:45:52;;;;;;;11.20;9.07;;;;;;;13.10;77.25;98601.88;124714;1097;64326;-85
2021/05/25 02:48:20;;;;;;;11.40;7.97;;;;;;;13.12;77.36;98617.81;124556;1097;64460;-85
2021/05/25 02:50:48;;;;;;;9.80;6.80;;;;;;;13.15;77.28;98612.20;124687;1105;64410;-84
2021/05/25 02:53:16;;;;;;;9.10;7.30;;;;;;;13.18;77.14;98618.14;124480;1104;64365;-86
2021/05/25 02:55:43;;;;;;;7.27;6.53;;;;;;;13.19;77.23;98629.69;124636;1104;64349;-85
2021/05/25 02:58:11;;;;;;;7.47;5.80;;;;;;;13.17;77.23;98629.83;124606;1104;64318;-86
2021/05/25 03:00:48;;;;;;;10.33;7.00;;;;;;;13.14;77.32;98630.09;124551;1104;64323;-85
2021/05/25 03:03:16;;;;;;;7.97;6.87;;;;;;;13.15;77.03;98630.94;124559;1096;64333;-85
2021/05/25 03:05:45;;;;;;;8.80;7.00;;;;;;;13.14;77.24;98621.22;124612;1105;64428;-86
2021/05/25 03:08:15;;;;;;;11.27;8.63;;;;;;;13.10;77.45;98628.63;124714;1096;64705;-84
2021/05/25 03:10:48;;;;;;;12.00;7.85;;;;;;;13.08;77.79;98635.09;124672;1104;64449;-85
2021/05/25 03:13:17;;;;;;;11.83;7.37;;;;;;;13.04;77.80;98637.17;124672;1104;64387;-84
2021/05/25 03:15:47;;;;;;;9.80;7.87;;;;;;;13.06;77.80;98619.18;124664;1104;64268;-84
2021/05/25 03:18:14;;;;;;;8.38;6.55;;;;;;;13.11;77.90;98592.89;124734;1096;64334;-84
2021/05/25 03:20:46;;;;;;;10.23;6.23;;;;;;;13.14;77.58;98603.33;124610;1105;64335;-84
2021/05/25 03:23:14;;;;;;;8.10;5.23;;;;;;;13.13;77.37;98582.89;124678;1097;64303;-85
2021/05/25 03:25:42;;;;;;;6.50;4.63;;;;;;;13.13;77.47;98566.84;124674;1104;64522;-85
2021/05/25 03:28:11;;;;;;;4.73;3.87;;;;;;;13.14;77.60;98568.55;124843;1097;64329;-84
2021/05/25 03:30:39;;;;;;;7.95;4.85;;;;;;;13.10;77.60;98593.85;124613;1104;64335;-85
2021/05/25 03:33:07;;;;;;;6.37;4.80;;;;;;;13.07;77.76;98590.59;124649;1097;64350;-85
2021/05/25 03:35:34;;;;;;;6.50;3.63;;;;;;;13.03;77.49;98583.79;124629;1096;64368;-86
2021/05/25 03:38:03;;;;;;;5.57;2.90;;;;;;;13.03;77.56;98583.79;124605;1097;64486;-84
2021/05/25 03:40:30;;;;;;;4.70;2.57;;;;;;;13.02;77.65;98582.95;124614;1104;64456;-84
2021/05/25 03:42:57;;;;;;;4.87;3.77;;;;;;;13.02;77.33;98584.78;124680;1097;64755;-85
2021/05/25 03:45:25;;;;;;;4.53;2.93;;;;;;;13.05;77.26;98571.14;124550;1104;64432;-84
2021/05/25 03:47:54;;;;;;;4.50;2.50;;;;;;;13.04;77.36;98580.16;124673;1096;64406;-85
2021/05/25 03:50:23;;;;;;;4.87;2.80;;;;;;;13.04;77.39;98577.48;124672;1104;64403;-85
2021/05/25 03:52:54;;;;;;;4.80;2.60;;;;;;;13.07;77.22;98571.88;124567;1104;64326;-85
2021/05/25 04:00:51;;;;;;;4.70;2.85;;;;;;;12.93;77.41;98575.70;124592;1104;64281;-85
2021/05/25 04:03:19;;;;;;;6.40;3.15;;;;;;;12.90;77.28;98573.27;124667;1097;64415;-85
2021/05/25 04:05:47;;;;;;;6.80;3.13;;;;;;;12.91;77.58;98569.63;124736;1104;64477;-85
2021/05/25 04:08:16;;;;;;;4.00;2.90;;;;;;;12.93;77.75;98559.66;124670;1097;64329;-85
2021/05/25 04:10:46;;;;;;;4.38;3.00;;;;;;;12.95;78.15;98576.41;124675;1104;64309;-85
2021/05/25 04:13:14;;;;;;;5.95;2.98;;;;;;;12.94;77.90;98591.61;124682;1104;64328;-86
2021/05/25 04:15:44;;;;;;;4.87;3.00;;;;;;;12.92;77.95;98593.55;124702;1104;64464;-85
2021/05/25 04:18:11;;;;;;;2.73;2.53;;;;;;;12.96;78.13;98599.52;124972;1097;64281;-84
2021/05/25 04:20:38;;;;;;;4.50;3.43;;;;;;;13.00;78.35;98605.45;124652;1097;64339;-84
2021/05/25 04:23:06;;;;;;;3.60;2.97;;;;;;;12.99;78.40;98604.61;124561;1104;64339;-84
2021/05/25 04:25:34;;;;;;;3.63;2.70;;;;;;;13.00;78.53;98600.09;124640;1104;64347;-83
2021/05/25 04:28:01;;;;;;;4.90;2.67;;;;;;;12.98;78.09;98599.38;124628;1104;64367;-85
2021/05/25 04:30:29;;;;;;;4.90;2.53;;;;;;;13.01;78.26;98604.49;124624;1104;64441;-85
2021/05/25 04:32:56;;;;;;;3.00;2.60;;;;;;;13.10;78.29;98607.23;124610;1104;64521;-85
2021/05/25 04:35:23;;;;;;;2.47;2.23;;;;;;;13.18;78.32;98604.75;124621;1104;64366;-85
2021/05/25 04:37:52;;;;;;;2.80;2.50;;;;;;;13.20;78.21;98603.80;124696;1104;64326;-84
2021/05/25 04:40:19;;;;;;;4.77;2.30;;;;;;;13.18;78.01;98603.91;124706;1104;64207;-85
2021/05/25 04:42:46;;;;;;;4.80;2.70;;;;;;;13.16;77.88;98605.86;124643;1104;64403;-84
2021/05/25 04:45:15;;;;;;;4.73;3.83;;;;;;;13.14;77.88;98602.48;124626;1104;64352;-84
2021/05/25 04:47:42;;;;;;;3.30;2.70;;;;;;;13.14;77.85;98607.84;124684;1096;64334;-84
2021/05/25 04:50:11;;;;;;;3.90;2.70;;;;;;;13.16;77.98;98609.41;124667;1097;64368;-84
2021/05/25 04:52:39;;;;;;;4.97;2.83;;;;;;;13.20;78.25;98614.50;124609;1096;64462;-84
2021/05/25 04:55:10;;;;;;;3.63;2.60;;;;;;;13.18;78.03;98614.62;124605;1104;64463;-85
2021/05/25 04:57:38;;;;;;;4.47;2.53;;;;;;;13.16;78.21;98622.80;124562;1096;64322;-85
2021/05/25 05:00:12;;;;;;;2.80;2.50;;;;;;;13.14;78.24;98608.69;124731;1104;64358;-85
2021/05/25 05:02:40;;;;;;;3.93;3.30;;;;;;;13.11;78.35;98616.97;124640;1105;64812;-84
2021/05/25 05:05:09;;;;;;;4.47;3.00;;;;;;;13.09;78.59;98612.73;124588;1104;64390;-84
2021/05/25 05:07:36;;;;;;;3.43;3.00;;;;;;;13.07;78.39;98617.34;124630;1104;64355;-84
2021/05/25 05:10:05;;;;;;;4.25;3.15;;;;;;;13.05;78.62;98617.47;124631;1097;64407;-85
2021/05/25 05:12:33;;;;;;;3.73;3.30;;;;;;;13.05;78.67;98613.95;124677;1104;64400;-85
2021/05/25 05:15:01;;;;;;;10.03;9.03;;;;;;;13.06;78.66;98605.80;124566;1105;64400;-85
2021/05/25 05:17:29;;;;;;;13.03;11.87;;;;;;;13.11;78.44;98611.63;124684;1104;64358;-84
2021/05/25 05:19:57;;;;;;;20.47;19.07;;;;;;;13.14;78.64;98621.22;124661;1097;64330;-85
2021/05/25 05:22:25;;;;;;;16.77;15.43;;;;;;;13.16;78.67;98620.12;124625;1097;64802;-85
2021/05/25 05:24:52;;;;;;;13.90;12.87;;;;;;;13.20;78.81;98619.86;124634;1104;64275;-84
2021/05/25 05:27:20;;;;;;;14.45;13.15;;;;;;;13.19;78.91;98632.36;124624;1097;64396;-85
2021/05/25 05:29:48;;;;;;;10.37;9.47;;;;;;;13.18;79.02;98631.52;124560;1104;64480;-85
2021/05/25 05:32:16;;;;;;;7.10;6.40;;;;;;;13.17;79.01;98628.98;124560;1105;64396;-87
2021/05/25 05:34:43;;;;;;;5.00;4.50;;;;;;;13.14;79.15;98632.77;124549;1104;64499;-84
2021/05/25 05:37:11;;;;;;;4.80;4.30;;;;;;;13.16;79.18;98640.64;124620;1097;64352;-84
2021/05/25 05:39:39;;;;;;;5.53;4.10;;;;;;;13.18;79.05;98636.87;124630;1104;64334;-85
2021/05/25 05:42:06;;;;;;;5.93;4.57;;;;;;;13.30;79.49;98640.39;124621;1104;64385;-85
2021/05/25 05:44:34;;;;;;;6.83;5.93;;;;;;;13.36;79.19;98626.48;124637;1104;64371;-85
2021/05/25 05:47:01;;;;;;;11.77;10.67;;;;;;;13.41;78.96;98623.42;124596;1104;64329;-84
2021/05/25 05:49:28;;;;;;;9.93;8.10;;;;;;;13.49;79.12;98625.45;124738;1105;64335;-85
2021/05/25 05:51:56;;;;;;;6.55;5.70;;;;;;;13.54;79.08;98628.59;124519;1105;64333;-84
2021/05/25 05:54:23;;;;;;;15.33;11.07;;;;;;;13.61;78.88;98629.75;124645;1104;64249;-85
2021/05/25 05:56:51;;;;;;;7.97;5.30;;;;;;;13.67;78.76;98629.24;124594;1104;64428;-84
2021/05/25 05:59:19;;;;;;;8.47;7.40;;;;;;;13.66;78.91;98632.88;124777;1104;64326;-85
2021/05/25 06:01:46;;;;;;;10.13;7.73;;;;;;;13.74;78.81;98625.04;124706;1096;64358;-85
2021/05/25 06:04:13;;;;;;;7.73;6.83;;;;;;;13.79;78.76;98632.69;124811;1104;64323;-86
2021/05/25 06:06:41;;;;;;;9.60;7.53;;;;;;;13.85;78.79;98632.18;124790;1104;64336;-84
2021/05/25 06:09:08;;;;;;;8.80;7.90;;;;;;;13.98;78.70;98627.45;124844;1104;64422;-84
2021/05/25 06:11:35;;;;;;;10.00;8.27;;;;;;;14.08;78.62;98634.67;124697;1097;64475;-84
2021/05/25 06:14:03;;;;;;;10.33;7.10;;;;;;;14.12;78.49;98642.32;124772;1105;64323;-85
2021/05/25 06:16:31;;;;;;;8.47;7.30;;;;;;;14.12;78.56;98638.80;124914;1097;64329;-84
2021/05/25 06:18:59;;;;;;;8.03;6.57;;;;;;;14.09;78.33;98629.20;124781;1097;64315;-84
2021/05/25 06:21:27;;;;;;;6.47;5.70;;;;;;;14.16;78.77;98640.21;124686;1097;64339;-84
2021/05/25 06:23:54;;;;;;;6.20;5.40;;;;;;;14.22;78.32;98623.62;124746;1097;64368;-84
2021/05/25 06:26:23;;;;;;;6.13;5.57;;;;;;;14.27;78.15;98622.22;124677;1104;64326;-84
2021/05/25 06:28:50;;;;;;;6.83;5.37;;;;;;;14.36;77.96;98617.88;124659;1104;64305;-84
2021/05/25 06:31:18;;;;;;;6.80;6.10;;;;;;;14.50;78.09;98622.84;124633;1097;64419;-86
2021/05/25 06:33:45;;;;;;;6.30;5.40;;;;;;;14.60;77.96;98624.75;124650;1104;64645;-84
2021/05/25 06:36:12;;;;;;;12.00;5.95;;;;;;;14.64;77.92;98627.03;124547;1104;64367;-85
2021/05/25 06:38:39;;;;;;;6.57;4.90;;;;;;;14.68;77.44;98627.59;124533;1097;64407;-85
2021/05/25 06:41:06;;;;;;;5.30;4.63;;;;;;;14.76;77.60;98627.74;124798;1097;64332;-83
2021/05/25 06:43:34;;;;;;;6.13;4.83;;;;;;;14.84;77.36;98625.21;124782;1104;64332;-84
2021/05/25 06:46:01;;;;;;;4.77;4.00;;;;;;;14.91;77.60;98614.78;124761;1104;64256;-83
2021/05/25 06:48:28;;;;;;;9.10;5.25;;;;;;;14.91;77.31;98620.16;124738;1104;64435;-84
2021/05/25 06:50:55;;;;;;;5.10;4.60;;;;;;;14.89;77.23;98619.44;124700;1097;64399;-85
2021/05/25 06:53:23;;;;;;;6.17;4.93;;;;;;;14.88;77.17;98617.75;124725;1096;64339;-85
2021/05/25 06:55:50;;;;;;;5.47;4.10;;;;;;;14.91;77.45;98614.78;124873;1097;64451;-85
2021/05/25 06:58:17;;;;;;;9.00;4.45;;;;;;;14.91;77.13;98617.47;124790;1104;64262;-84
2021/05/25 07:00:44;;;;;;;5.93;4.37;;;;;;;14.96;76.90;98612.53;124829;1104;64342;-84
2021/05/25 07:03:12;;;;;;;9.57;5.60;;;;;;;15.06;76.91;98604.47;124687;1097;64339;-84
2021/05/25 07:05:39;;;;;;;8.87;5.53;;;;;;;15.20;76.71;98601.38;124583;1096;64281;-85
2021/05/25 07:08:07;;;;;;;6.27;4.73;;;;;;;15.36;77.13;98590.91;124613;1096;64473;-85
2021/05/25 07:10:34;;;;;;;7.23;4.70;;;;;;;15.45;76.69;98597.25;124554;1104;64382;-85
2021/05/25 07:13:02;;;;;;;6.87;5.23;;;;;;;15.48;76.45;98602.36;124985;1097;64426;-85
2021/05/25 07:15:29;;;;;;;6.87;5.60;;;;;;;15.54;76.14;98617.05;124792;1104;64330;-83
2021/05/25 07:17:57;;;;;;;7.53;5.53;;;;;;;15.58;75.98;98613.91;124669;1104;64279;-84
2021/05/25 07:20:26;;;;;;;8.23;5.13;;;;;;;15.62;75.79;98622.55;124913;1104;64335;-84
2021/05/25 07:22:54;;;;;;;10.13;5.80;;;;;;;15.64;75.78;98617.02;125006;1096;64342;-84
2021/05/25 07:25:24;;;;;;;7.77;5.23;;;;;;;15.68;75.21;98624.64;125059;1104;64371;-85
2021/05/25 07:27:52;;;;;;;;;;;;;;;15.72;75.10;98628.78;125287;1104;64253;-85
2021/05/25 07:30:20;;;;;;;12.30;6.60;;;;;;;15.79;74.89;98623.66;125072;1104;64338;-84
2021/05/25 07:32:48;;;;;;;10.30;7.10;;;;;;;15.95;75.06;98631.96;125348;1104;64351;-86
2021/05/25 07:35:16;;;;;;;10.23;7.93;;;;;;;16.09;74.79;98638.73;125383;1104;64419;-84
2021/05/25 07:37:44;;;;;;;11.43;8.13;;;;;;;16.20;74.55;98640.39;125242;1104;64454;-85
2021/05/25 07:40:15;;;;;;;10.23;8.93;;;;;;;16.34;74.18;98637.21;125131;1097;64335;-84
2021/05/25 07:42:44;;;;;;;10.10;8.17;;;;;;;16.48;73.79;98643.09;124822;1104;64304;-84
2021/05/25 07:45:14;;;;;;;9.95;7.43;;;;;;;16.60;73.44;98644.60;124807;1104;64453;-85
2021/05/25 07:47:42;;;;;;;9.87;8.77;;;;;;;16.79;73.52;98646.37;124927;1104;64403;-83
2021/05/25 07:50:13;;;;;;;10.57;8.67;;;;;;;17.04;73.26;98653.72;124882;1104;64333;-83
2021/05/25 07:52:45;;;;;;;12.50;8.60;;;;;;;17.17;72.75;98663.25;124857;1104;64336;-84
2021/05/25 07:55:14;;;;;;;11.10;7.67;;;;;;;17.23;71.97;98657.27;124903;1097;64349;-84
2021/05/25 07:57:41;;;;;;;9.23;7.37;;;;;;;17.36;72.44;98662.28;125009;1096;64345;-84
2021/05/25 08:00:11;;;;;;;7.93;5.83;;;;;;;17.59;71.84;98660.81;124724;1104;64499;-84
2021/05/25 08:02:40;;;;;;;10.20;6.43;;;;;;;17.75;71.06;98670.88;124694;1096;64316;-85
2021/05/25 08:05:09;;;;;;;5.97;5.40;;;;;;;17.90;70.90;98660.39;124688;1104;64303;-85
2021/05/25 08:07:36;;;;;;;5.33;4.30;;;;;;;17.94;70.24;98667.17;124703;1104;64350;-84
2021/05/25 08:10:06;;;;;;;6.10;4.00;;;;;;;17.96;69.84;98663.31;124744;1096;64350;-84
2021/05/25 08:12:33;;;;;;;13.08;6.28;;;;;;;18.09;69.47;98664.73;124792;1104;64358;-85
2021/05/25 08:15:03;;;;;;;7.17;4.50;;;;;;;18.26;69.70;98661.14;124795;1097;64389;-83
2021/05/25 08:20:16;;;;;;;4.00;3.27;;;;;;;18.46;68.31;98663.59;124824;1104;64246;-84
2021/05/25 08:22:45;;;;;;;3.50;3.20;;;;;;;18.65;67.69;98666.90;124835;1104;64425;-85
2021/05/25 08:25:15;;;;;;;3.23;2.60;;;;;;;18.80;67.68;98663.60;124852;1096;64313;-84
2021/05/25 08:27:46;;;;;;;7.10;4.20;;;;;;;18.96;67.55;98677.19;124608;1096;64365;-87
2021/05/25 08:30:16;;;;;;;7.97;3.30;;;;;;;19.12;67.07;98679.08;124567;1097;64438;-85
2021/05/25 08:32:43;;;;;;;2.47;2.27;;;;;;;19.11;67.01;98680.08;124760;1104;64693;-84
2021/05/25 08:35:11;;;;;;;2.43;1.90;;;;;;;19.07;66.07;98681.44;124797;1104;64718;-84
2021/05/25 08:37:39;;;;;;;3.27;2.20;;;;;;;18.99;66.09;98686.81;124846;1104;64473;-83
2021/05/25 08:40:09;;;;;;;2.53;1.90;;;;;;;18.89;65.68;98680.70;124872;1104;64341;-83
2021/05/25 08:42:37;;;;;;;3.27;2.20;;;;;;;18.68;66.17;98684.63;124809;1097;64268;-84
2021/05/25 08:45:10;;;;;;;4.27;2.10;;;;;;;18.50;66.71;98691.95;124762;1096;64455;-84
2021/05/25 08:47:37;;;;;;;2.13;2.00;;;;;;;18.38;66.68;98692.24;124639;1097;64419;-83
2021/05/25 08:50:08;;;;;;;2.97;2.40;;;;;;;18.20;67.36;98689.59;124807;1104;64416;-83
2021/05/25 08:52:36;;;;;;;2.73;1.90;;;;;;;18.06;67.09;98700.10;124835;1105;64507;-84
2021/05/25 08:55:06;;;;;;;3.33;2.13;;;;;;;18.02;67.52;98696.05;124748;1104;64336;-84
2021/05/25 08:57:34;;;;;;;2.77;1.90;;;;;;;17.95;67.61;98703.91;124813;1104;64307;-84
2021/05/25 09:00:07;;;;;;;2.10;1.80;;;;;;;17.92;67.98;98702.36;124886;1104;64373;-84
2021/05/25 09:02:35;;;;;;;3.00;2.27;;;;;;;17.84;67.83;98698.77;124917;1104;64492;-84
2021/05/25 09:05:09;;;;;;;1.87;1.70;;;;;;;17.84;68.26;98699.61;124873;1096;64796;-84
2021/05/25 09:07:39;;;;;;;2.63;2.43;;;;;;;17.95;67.78;98704.74;124921;1104;64252;-83
2021/05/25 09:10:11;;;;;;;4.23;1.97;;;;;;;17.99;67.13;98700.74;125057;1104;64355;-84
2021/05/25 09:12:40;;;;;;;2.30;1.87;;;;;;;18.03;67.47;98695.03;124848;1104;64435;-84
2021/05/25 09:15:09;;;;;;;3.93;1.97;;;;;;;18.16;67.35;98704.39;124938;1097;64310;-84
2021/05/25 09:17:36;;;;;;;2.63;2.00;;;;;;;18.47;66.38;98698.52;124942;1104;64428;-84
2021/05/25 09:20:05;;;;;;;4.20;1.90;;;;;;;18.91;66.51;98701.13;124955;1104;64336;-84
2021/05/25 09:22:41;;;;;;;2.33;2.23;;;;;;;19.14;65.23;98695.98;125005;1104;64325;-83
2021/05/25 09:25:22;;;;;;;2.23;1.93;;;;;;;19.36;64.98;98701.77;124836;1097;64368;-84
2021/05/25 09:28:08;;;;;;;4.90;2.40;;;;;;;19.57;65.07;98702.13;124914;1104;64454;-84
2021/05/25 09:30:36;;;;;;;1.90;1.80;;;;;;;19.65;64.44;98704.00;124969;1104;64328;-84
2021/05/25 09:33:05;;;;;;;2.33;2.13;;;;;;;19.69;64.15;98706.20;124820;1104;64320;-84
2021/05/25 09:35:36;;;;;;;2.40;2.05;;;;;;;19.79;63.96;98710.63;124901;1097;64332;-84
2021/05/25 09:38:12;;;;;;;2.30;2.10;;;;;;;19.77;63.50;98709.94;124917;1104;64338;-85
2021/05/25 09:40:42;;;;;;;2.20;2.03;;;;;;;19.70;63.75;98718.73;124966;1104;64437;-83
2021/05/25 09:43:10;;;;;;;2.30;2.20;;;;;;;19.64;63.46;98724.79;124974;1104;64301;-84
2021/05/25 09:46:07;;;;;;;2.80;2.30;;;;;;;19.48;63.47;98720.20;125192;1104;64252;-84
2021/05/25 09:48:44;;;;;;;3.27;2.00;;;;;;;19.28;63.48;98719.64;124878;1104;64275;-84
2021/05/25 09:51:23;;;;;;;3.00;2.75;;;;;;;19.11;63.32;98720.59;124806;1104;64467;-85
2021/05/25 09:53:52;;;;;;;3.58;2.30;;;;;;;18.94;63.66;98717.00;124626;1104;64314;-86
2021/05/25 09:56:24;;;;;;;2.60;2.40;;;;;;;18.87;63.65;98732.15;124749;1104;64329;-86
2021/05/25 09:58:52;;;;;;;2.60;2.40;;;;;;;18.78;64.02;98722.34;124875;1104;64335;-84
2021/05/25 10:01:19;;;;;;;2.90;2.70;;;;;;;18.69;64.04;98724.09;124740;1096;64335;-85
2021/05/25 10:03:55;;;;;;;2.27;2.07;;;;;;;18.65;64.19;98722.75;124570;1097;64253;-85
2021/05/25 10:06:24;;;;;;;2.53;2.20;;;;;;;18.74;63.53;98724.46;124615;1096;64650;-85
2021/05/25 10:08:52;;;;;;;2.73;2.53;;;;;;;18.77;63.71;98720.63;124636;1104;64249;-84
2021/05/25 10:11:20;;;;;;;2.93;2.73;;;;;;;18.81;63.59;98730.95;124624;1105;64425;-85
2021/05/25 10:13:48;;;;;;;3.10;2.30;;;;;;;18.93;63.71;98726.13;124563;1104;64326;-86
2021/05/25 10:16:18;;;;;;;2.93;2.50;;;;;;;19.06;63.96;98717.53;124627;1104;64432;-84
2021/05/25 10:21:14;;;;;;;2.90;2.60;;;;;;;19.36;62.63;98726.09;124980;1104;64357;-83
2021/05/25 10:23:43;;;;;;;3.90;3.00;;;;;;;19.17;63.17;98733.47;124792;1104;64249;-83
2021/05/25 10:26:20;;;;;;;3.60;3.25;;;;;;;18.87;62.82;98732.15;124708;1097;64323;-84
2021/05/25 10:28:51;;;;;;;3.70;3.37;;;;;;;18.64;63.17;98745.33;124839;1104;64329;-84
2021/05/25 10:31:29;;;;;;;3.23;2.93;;;;;;;18.76;63.40;98743.25;124816;1104;64339;-83
2021/05/25 10:34:15;;;;;;;3.30;3.00;;;;;;;18.80;63.58;98747.30;124882;1096;64329;-84
2021/05/25 10:36:54;;;;;;;3.20;3.00;;;;;;;18.61;63.94;98759.14;124884;1096;64336;-83
2021/05/25 10:39:28;;;;;;;4.80;3.17;;;;;;;18.36;64.59;98764.39;124769;1104;64371;-84
2021/05/25 10:42:14;;;;;;;3.97;2.73;;;;;;;18.13;64.67;98753.26;124973;1097;64326;-84
2021/05/25 10:45:09;;;;;;;4.27;3.47;;;;;;;17.86;65.09;98762.31;124915;1097;64326;-83
2021/05/25 10:52:54;;;;;;;2.73;2.53;;;;;;;16.48;67.33;98797.27;124888;1097;64318;-83
2021/05/25 10:55:31;;;;;;;1.90;1.70;;;;;;;16.05;68.25;98825.48;124785;1104;64426;-82
2021/05/25 10:58:00;;;;;;;1.93;1.73;;;;;;;15.52;68.98;98839.27;124729;1104;64333;-83
2021/05/25 11:00:34;;;;;;;2.13;1.50;;;;;;;15.15;68.64;98851.44;124736;1097;64261;-83
2021/05/25 11:03:11;;;;;;;1.17;1.10;;;;;;;14.60;68.46;98837.47;124736;1097;64330;-83
2021/05/25 11:05:44;;;;;;;1.20;1.10;;;;;;;13.98;69.56;98859.67;124724;1097;64368;-83
2021/05/25 11:08:17;;;;;;;1.30;1.20;;;;;;;13.58;69.47;98863.80;124658;1097;64374;-85
2021/05/25 11:10:48;;;;;;;1.70;1.23;;;;;;;13.41;70.11;98874.20;124912;1097;64328;-83
2021/05/25 11:13:22;;;;;;;1.33;1.23;;;;;;;13.20;70.24;98879.41;124875;1097;64351;-83
2021/05/25 11:16:19;;;;;;;1.80;1.70;;;;;;;13.16;70.54;98886.81;124712;1097;64268;-84
2021/05/25 11:18:53;;;;;;;2.87;1.67;;;;;;;13.08;70.59;98886.58;124971;1104;64367;-83
2021/05/25 11:21:41;;;;;;;4.27;1.40;;;;;;;13.06;70.06;98891.19;125158;1104;64450;-85
2021/05/25 11:24:36;;;;;;;2.80;1.50;;;;;;;13.04;70.86;98902.03;125106;1104;64383;-84
2021/05/25 11:27:07;;;;;;;2.00;1.50;;;;;;;13.06;70.86;98905.45;124969;1097;64262;-84
2021/05/25 11:29:38;;;;;;;1.80;1.70;;;;;;;13.05;70.97;98906.39;125144;1095;64326;-83
2021/05/25 11:32:11;;;;;;;1.90;1.40;;;;;;;12.94;70.68;98911.74;125032;1104;64323;-84
2021/05/25 11:34:39;;;;;;;1.87;1.60;;;;;;;12.90;70.88;98912.94;125052;1097;64503;-84
2021/05/25 11:37:10;;;;;;;1.67;1.57;;;;;;;12.83;71.16;98925.11;125009;1097;64384;-85
2021/05/25 11:39:38;;;;;;;2.85;1.90;;;;;;;12.82;71.51;98926.06;125139;1104;64332;-84
2021/05/25 11:42:07;;;;;;;2.73;1.80;;;;;;;12.81;71.85;98927.05;125108;1097;64329;-85
2021/05/25 11:44:43;;;;;;;4.20;2.10;;;;;;;12.80;71.68;98926.20;125007;1104;64368;-84
2021/05/25 11:47:12;;;;;;;4.90;2.87;;;;;;;12.93;71.73;98918.08;124971;1104;64329;-85
2021/05/25 11:49:42;;;;;;;5.70;3.10;;;;;;;13.10;71.66;98911.39;125021;1104;64432;-84